Time;durP1;ratioP1;P1;durP2;ratioP2;P2;SDS_P1;SDS_P2;PMS_P1;PMS_P2;Temp;Humidity;BMP_temperature;BMP_pressure;BME280_temperature;BME280_humidity;BME280_pressure;Samples;Min_cycle;Max_cycle;Signal;HPM_P1;HPM_P2
2023/08/14 00:02:22;;;;;;;1999.90;999.90;;;19.50;99.90;;;;;;5031900;28;20038;-74
2023/08/14 00:04:50;;;;;;;1999.90;999.90;;;19.50;99.90;;;;;;5031795;28;20030;-75
2023/08/14 00:07:16;;;;;;;1999.90;999.90;;;19.60;99.90;;;;;;5031840;28;20113;-75
2023/08/14 00:09:41;;;;;;;1999.90;999.90;;;19.60;99.90;;;;;;5031401;28;20044;-75
2023/08/14 00:12:07;;;;;;;1999.90;999.90;;;19.70;99.90;;;;;;5031908;28;20395;-75
2023/08/14 00:14:33;;;;;;;1999.90;999.90;;;19.70;99.90;;;;;;5031721;27;20077;-74
2023/08/14 00:16:59;;;;;;;1999.90;999.90;;;19.70;99.90;;;;;;5031923;28;20033;-74
2023/08/14 00:19:25;;;;;;;1999.90;999.90;;;19.70;99.90;;;;;;5031612;28;20117;-74
2023/08/14 00:21:51;;;;;;;1999.90;999.90;;;19.80;99.90;;;;;;5031680;28;20113;-75
2023/08/14 00:24:16;;;;;;;1999.90;999.90;;;19.80;99.90;;;;;;5031475;28;20073;-75
2023/08/14 00:26:42;;;;;;;1999.90;999.90;;;19.80;99.90;;;;;;5031761;28;20030;-75
2023/08/14 00:29:07;;;;;;;1999.90;999.90;;;19.90;99.90;;;;;;5031653;28;20045;-75
2023/08/14 00:31:33;;;;;;;1999.90;999.90;;;19.90;99.90;;;;;;5031842;28;20045;-75
2023/08/14 00:33:58;;;;;;;1999.90;999.90;;;19.90;99.90;;;;;;5033950;28;20544;-75
2023/08/14 00:36:24;;;;;;;1999.90;999.90;;;19.90;99.90;;;;;;5035270;28;20038;-75
2023/08/14 00:38:50;;;;;;;1999.90;999.90;;;19.90;99.90;;;;;;5034614;28;20044;-75
2023/08/14 00:41:16;;;;;;;1999.90;999.90;;;20.00;99.90;;;;;;5034765;28;20572;-75
2023/08/14 00:43:41;;;;;;;1999.90;999.90;;;20.00;99.90;;;;;;5034418;28;20049;-75
2023/08/14 00:46:07;;;;;;;1999.90;999.90;;;20.00;99.90;;;;;;5033870;28;20616;-75
2023/08/14 00:48:34;;;;;;;1999.90;999.90;;;20.00;99.90;;;;;;5034239;28;20049;-75
2023/08/14 00:51:00;;;;;;;1999.90;999.90;;;20.00;99.90;;;;;;5034051;28;20026;-74
2023/08/14 00:53:28;;;;;;;1999.90;999.90;;;19.90;99.90;;;;;;5034247;27;20041;-75
2023/08/14 00:55:54;;;;;;;1999.90;999.90;;;19.90;99.90;;;;;;5033983;27;20034;-74
2023/08/14 00:58:21;;;;;;;1999.90;999.90;;;19.90;99.90;;;;;;5034035;28;20038;-75
2023/08/14 01:00:47;;;;;;;1999.90;999.90;;;19.90;99.90;;;;;;5032919;27;20072;-75
2023/08/14 01:03:13;;;;;;;1999.90;999.90;;;19.90;99.90;;;;;;5034531;27;20116;-75
2023/08/14 01:05:38;;;;;;;1999.90;999.90;;;19.90;99.90;;;;;;5034047;28;20034;-74
2023/08/14 01:08:04;;;;;;;1999.90;999.90;;;19.90;99.90;;;;;;5033811;28;20511;-75
2023/08/14 01:10:59;;;;;;;1999.90;999.90;;;19.90;99.90;;;;;;5033897;28;20030;-75
2023/08/14 01:13:36;;;;;;;1999.90;999.90;;;19.90;99.90;;;;;;5034385;27;20034;-75
2023/08/14 01:16:09;;;;;;;1999.90;999.90;;;19.90;99.90;;;;;;5033923;28;20037;-75
2023/08/14 01:18:38;;;;;;;1999.90;999.90;;;20.00;99.90;;;;;;5034020;28;20034;-74
2023/08/14 01:21:11;;;;;;;1999.90;999.90;;;19.80;99.90;;;;;;5033960;27;20030;-75
2023/08/14 01:24:06;;;;;;;1999.90;999.90;;;19.90;99.90;;;;;;5034239;28;20089;-75
2023/08/14 01:26:33;;;;;;;1999.90;999.90;;;19.90;99.90;;;;;;5033941;28;20034;-75
2023/08/14 01:28:59;;;;;;;1999.90;999.90;;;19.90;99.90;;;;;;5033759;28;20117;-75
2023/08/14 01:31:24;;;;;;;1999.90;999.90;;;19.90;99.90;;;;;;5034045;28;20036;-75
2023/08/14 01:33:50;;;;;;;1999.90;999.90;;;19.90;99.90;;;;;;5033548;28;20082;-75
2023/08/14 01:36:19;;;;;;;1999.90;999.90;;;19.80;99.90;;;;;;5033383;28;20034;-75
2023/08/14 01:38:55;;;;;;;1999.90;999.90;;;19.80;99.90;;;;;;5032080;28;20045;-75
2023/08/14 01:41:50;;;;;;;1999.90;999.90;;;19.80;99.90;;;;;;5032419;28;20082;-75
2023/08/14 01:44:20;;;;;;;1999.90;999.90;;;19.80;99.90;;;;;;5018417;28;20107;-75
2023/08/14 01:46:47;;;;;;;1999.90;999.90;;;19.70;99.90;;;;;;5033751;28;20813;-75
2023/08/14 01:49:16;;;;;;;1999.90;999.90;;;19.80;99.90;;;;;;5033469;28;20125;-75
2023/08/14 01:51:42;;;;;;;1999.90;999.90;;;19.80;99.90;;;;;;5033338;28;20034;-75
2023/08/14 01:54:09;;;;;;;1999.90;999.90;;;19.80;99.90;;;;;;5033054;27;20041;-75
2023/08/14 01:56:34;;;;;;;1999.90;999.90;;;19.80;99.90;;;;;;5033777;27;20101;-75
2023/08/14 01:59:00;;;;;;;1999.90;999.90;;;19.80;99.90;;;;;;5032855;28;20117;-75
2023/08/14 02:01:25;;;;;;;1999.90;999.90;;;19.90;99.90;;;;;;5032107;28;20053;-75
2023/08/14 02:03:51;;;;;;;1999.90;999.90;;;19.70;99.90;;;;;;5033517;28;20516;-75
2023/08/14 02:06:16;;;;;;;1999.90;999.90;;;19.60;99.90;;;;;;5033081;28;20083;-75
2023/08/14 02:08:42;;;;;;;1999.90;999.90;;;19.70;99.90;;;;;;5032983;28;20045;-75
2023/08/14 02:11:08;;;;;;;1999.90;999.90;;;19.70;99.90;;;;;;5033264;28;20116;-75
2023/08/14 02:13:34;;;;;;;1999.90;999.90;;;19.80;99.90;;;;;;5032005;28;20038;-75
2023/08/14 02:16:00;;;;;;;1999.90;999.90;;;19.80;99.90;;;;;;5033178;28;20483;-75
2023/08/14 02:18:26;;;;;;;1999.90;999.90;;;19.80;99.90;;;;;;5032769;28;20049;-75
2023/08/14 02:20:53;;;;;;;1999.90;999.90;;;19.80;99.90;;;;;;5031954;27;20034;-75
2023/08/14 02:23:19;;;;;;;1999.90;999.90;;;19.90;99.90;;;;;;5033193;28;20034;-75
2023/08/14 02:25:44;;;;;;;1999.90;999.90;;;19.80;99.90;;;;;;5032926;28;20026;-75
2023/08/14 02:28:10;;;;;;;1999.90;999.90;;;19.80;99.90;;;;;;5031388;28;20038;-75
2023/08/14 02:30:42;;;;;;;1999.90;999.90;;;19.90;99.90;;;;;;5033220;28;20480;-75
2023/08/14 02:33:09;;;;;;;1999.90;999.90;;;19.80;99.90;;;;;;5031752;28;20119;-75
2023/08/14 02:35:34;;;;;;;1999.90;999.90;;;19.70;99.90;;;;;;5033032;28;20115;-74
2023/08/14 02:38:06;;;;;;;1999.90;999.90;;;19.80;99.90;;;;;;5032997;28;20514;-75
2023/08/14 02:40:32;;;;;;;1999.90;999.90;;;19.80;99.90;;;;;;5033238;28;20030;-75
2023/08/14 02:43:00;;;;;;;1999.90;999.90;;;19.80;99.90;;;;;;5032957;28;20038;-75
2023/08/14 02:45:26;;;;;;;1999.90;999.90;;;19.80;99.90;;;;;;5032887;28;20091;-75
2023/08/14 02:47:52;;;;;;;1999.90;999.90;;;19.90;99.90;;;;;;5032690;28;20042;-75
2023/08/14 02:50:17;;;;;;;1999.90;999.90;;;19.80;99.90;;;;;;5032949;28;20101;-75
2023/08/14 02:52:43;;;;;;;1999.90;999.90;;;19.80;99.90;;;;;;5033151;28;20470;-75
2023/08/14 02:55:08;;;;;;;1999.90;999.90;;;20.00;99.90;;;;;;5032153;28;20037;-75
2023/08/14 02:57:34;;;;;;;1999.90;999.90;;;19.90;99.90;;;;;;5031335;28;20045;-74
2023/08/14 02:59:59;;;;;;;1999.90;999.90;;;19.90;99.90;;;;;;5032908;28;20055;-76
2023/08/14 03:02:25;;;;;;;1999.90;999.90;;;19.80;99.90;;;;;;5032842;27;20117;-75
2023/08/14 03:04:51;;;;;;;1999.90;999.90;;;19.90;99.90;;;;;;5032769;28;20038;-75
2023/08/14 03:07:16;;;;;;;1999.90;999.90;;;19.80;99.90;;;;;;5032761;27;20038;-75
2023/08/14 03:09:42;;;;;;;1999.90;999.90;;;19.80;99.90;;;;;;5118258;22;20396;-76
2023/08/14 03:12:07;;;;;;;1999.90;999.90;;;19.70;99.90;;;;;;5116539;28;20452;-76
2023/08/14 03:14:33;;;;;;;1999.90;999.90;;;19.80;99.90;;;;;;5116015;28;20042;-76
2023/08/14 03:16:59;;;;;;;1999.90;999.90;;;19.70;99.90;;;;;;5116434;28;20107;-76
2023/08/14 03:19:24;;;;;;;1999.90;999.90;;;19.70;99.90;;;;;;5116035;28;20035;-76
2023/08/14 03:21:52;;;;;;;1999.90;999.90;;;19.70;99.90;;;;;;5116410;28;20032;-76
2023/08/14 03:24:19;;;;;;;1999.90;999.90;;;19.70;99.90;;;;;;5116014;27;20485;-76
2023/08/14 03:26:45;;;;;;;1999.90;999.90;;;19.70;99.90;;;;;;5114774;28;20035;-76
2023/08/14 03:29:11;;;;;;;1999.90;999.90;;;19.60;99.90;;;;;;5115800;27;20118;-76
2023/08/14 03:31:36;;;;;;;1999.90;999.90;;;19.60;99.90;;;;;;5116246;28;20036;-76
2023/08/14 03:34:02;;;;;;;1999.90;999.90;;;19.50;99.90;;;;;;5115786;28;20064;-76
2023/08/14 03:36:27;;;;;;;1999.90;999.90;;;19.50;99.90;;;;;;5114599;28;20032;-76
2023/08/14 03:38:53;;;;;;;1999.90;999.90;;;19.40;99.90;;;;;;5115813;28;20099;-76
2023/08/14 03:41:19;;;;;;;1999.90;999.90;;;19.30;99.90;;;;;;5115854;28;20024;-76
2023/08/14 03:43:45;;;;;;;1999.90;999.90;;;19.40;99.90;;;;;;5115768;27;20115;-76
2023/08/14 03:46:10;;;;;;;1999.90;999.90;;;19.30;99.90;;;;;;5114970;27;20032;-76
2023/08/14 03:48:37;;;;;;;1999.90;999.90;;;19.20;99.90;;;;;;5115706;28;20389;-76
2023/08/14 03:51:03;;;;;;;1999.90;999.90;;;19.30;99.90;;;;;;5115950;27;20032;-76
2023/08/14 03:53:28;;;;;;;1999.90;999.90;;;19.20;99.90;;;;;;5115846;27;20036;-76
2023/08/14 03:55:54;;;;;;;1999.90;999.90;;;19.10;99.90;;;;;;5115656;28;20037;-76
2023/08/14 03:58:19;;;;;;;1999.90;999.90;;;19.20;99.90;;;;;;5115765;28;20111;-76
2023/08/14 04:00:48;;;;;;;1999.90;999.90;;;19.10;99.90;;;;;;5115857;28;20028;-76
2023/08/14 04:03:14;;;;;;;1999.90;999.90;;;19.40;99.90;;;;;;5115613;27;20170;-75
2023/08/14 04:05:40;;;;;;;1999.90;999.90;;;19.40;99.90;;;;;;5115563;27;20158;-76
2023/08/14 04:08:07;;;;;;;1999.90;999.90;;;19.60;99.90;;;;;;5112914;28;20035;-77
2023/08/14 04:10:33;;;;;;;1999.90;999.90;;;19.80;99.90;;;;;;5116218;27;20027;-76
2023/08/14 04:12:59;;;;;;;1999.90;999.90;;;19.80;99.90;;;;;;5112762;27;20040;-76
2023/08/14 04:15:24;;;;;;;1999.90;999.90;;;19.90;99.90;;;;;;5132501;27;20042;-75
2023/08/14 04:17:50;;;;;;;1999.90;999.90;;;19.90;99.90;;;;;;5134597;27;20412;-76
2023/08/14 04:20:15;;;;;;;1999.90;999.90;;;19.90;99.90;;;;;;5136385;27;20044;-75
2023/08/14 04:22:41;;;;;;;1999.90;999.90;;;19.90;99.90;;;;;;5134638;27;20046;-76
2023/08/14 04:25:07;;;;;;;1999.90;999.90;;;19.90;99.90;;;;;;5135714;27;20036;-75
2023/08/14 04:27:35;;;;;;;1999.90;999.90;;;19.80;99.90;;;;;;5135798;27;20035;-75
2023/08/14 04:30:01;;;;;;;1999.90;999.90;;;19.80;99.90;;;;;;5135803;27;20081;-75
2023/08/14 04:32:26;;;;;;;1999.90;999.90;;;19.70;99.90;;;;;;5135935;27;20036;-75
2023/08/14 04:34:52;;;;;;;1999.90;999.90;;;19.80;99.90;;;;;;5135741;27;20035;-75
2023/08/14 04:37:17;;;;;;;1999.90;999.90;;;19.70;99.90;;;;;;5135976;27;20031;-75
2023/08/14 04:39:43;;;;;;;1999.90;999.90;;;19.70;99.90;;;;;;5135682;27;20081;-75
2023/08/14 04:42:08;;;;;;;1999.90;999.90;;;19.70;99.90;;;;;;5135822;27;20835;-75
2023/08/14 04:44:34;;;;;;;1999.90;999.90;;;19.70;99.90;;;;;;5135587;27;20036;-75
2023/08/14 04:46:59;;;;;;;1999.90;999.90;;;19.70;99.90;;;;;;5135754;27;20032;-75
2023/08/14 04:49:25;;;;;;;1999.90;999.90;;;19.60;99.90;;;;;;5135564;27;20032;-75
2023/08/14 04:51:50;;;;;;;1999.90;999.90;;;19.50;99.90;;;;;;5135811;27;20031;-75
2023/08/14 04:54:17;;;;;;;1999.90;999.90;;;19.40;99.90;;;;;;5133846;27;20035;-75
2023/08/14 04:56:42;;;;;;;1999.90;999.90;;;19.40;99.90;;;;;;5135729;27;20032;-79
2023/08/14 04:59:08;;;;;;;1999.90;999.90;;;19.40;99.90;;;;;;5135229;27;20031;-75
2023/08/14 05:01:34;;;;;;;1999.90;999.90;;;19.30;99.90;;;;;;5135656;27;20028;-76
2023/08/14 05:03:59;;;;;;;1999.90;999.90;;;19.20;99.90;;;;;;5135348;27;20042;-76
2023/08/14 05:06:25;;;;;;;1999.90;999.90;;;19.20;99.90;;;;;;5135834;27;20066;-76
2023/08/14 05:08:50;;;;;;;1999.90;999.90;;;19.20;99.90;;;;;;5133468;27;20085;-76
2023/08/14 05:11:16;;;;;;;1999.90;999.90;;;19.50;99.90;;;;;;5136333;27;20028;-78
2023/08/14 05:13:44;;;;;;;1999.90;999.90;;;19.50;99.90;;;;;;5136263;27;20042;-75
2023/08/14 05:16:10;;;;;;;1999.90;999.90;;;19.40;99.90;;;;;;5135185;27;20081;-76
2023/08/14 05:18:36;;;;;;;1999.90;999.90;;;19.50;99.90;;;;;;5136807;27;20111;-75
2023/08/14 05:21:01;;;;;;;1999.90;999.90;;;19.50;99.90;;;;;;5138872;27;20623;-76
2023/08/14 05:23:27;;;;;;;1999.90;999.90;;;19.50;99.90;;;;;;5139110;27;20038;-78
2023/08/14 05:25:52;;;;;;;1999.90;999.90;;;19.60;99.90;;;;;;5138322;27;20027;-76
2023/08/14 05:28:18;;;;;;;1999.90;999.90;;;19.70;99.90;;;;;;5138579;27;20043;-76
2023/08/14 05:30:46;;;;;;;1999.90;999.90;;;19.80;99.90;;;;;;5138963;27;20031;-78
2023/08/14 05:33:13;;;;;;;1999.90;999.90;;;19.90;99.90;;;;;;5137193;27;20496;-77
2023/08/14 05:35:39;;;;;;;1999.90;999.90;;;20.10;99.90;;;;;;5138588;27;20060;-75
2023/08/14 05:38:05;;;;;;;1999.90;999.90;;;20.20;99.90;;;;;;5136845;27;20055;-75
2023/08/14 05:40:30;;;;;;;1999.90;999.90;;;20.30;99.90;;;;;;5136957;27;20455;-75
2023/08/14 05:43:03;;;;;;;1999.90;999.90;;;20.40;99.90;;;;;;5137039;27;20070;-75
2023/08/14 05:45:29;;;;;;;1999.90;999.90;;;20.60;99.90;;;;;;5119405;27;20047;-76
2023/08/14 05:47:55;;;;;;;1999.90;999.90;;;20.80;99.90;;;;;;5115042;27;20111;-75
2023/08/14 05:50:21;;;;;;;1999.90;999.90;;;21.00;99.90;;;;;;5116437;28;20127;-75
2023/08/14 05:52:47;;;;;;;1999.90;999.90;;;21.20;99.90;;;;;;5117890;28;20036;-76
2023/08/14 05:55:13;;;;;;;1999.90;999.90;;;21.40;99.90;;;;;;5117329;27;20045;-75
2023/08/14 05:57:38;;;;;;;1999.90;999.90;;;21.40;99.90;;;;;;5116854;28;20462;-80
2023/08/14 06:00:05;;;;;;;1999.90;999.90;;;21.50;99.90;;;;;;5126487;27;20477;-76
2023/08/14 06:02:30;;;;;;;1999.90;999.90;;;21.60;99.90;;;;;;5136270;27;20496;-77
2023/08/14 06:04:56;;;;;;;1999.90;999.90;;;21.70;99.90;;;;;;5136022;27;20042;-76
2023/08/14 06:07:24;;;;;;;1999.90;999.90;;;21.80;99.90;;;;;;5137221;27;20035;-77
2023/08/14 06:09:49;;;;;;;1999.90;999.90;;;21.90;99.90;;;;;;5136185;27;20058;-76
2023/08/14 06:12:15;;;;;;;1999.90;999.90;;;21.90;99.90;;;;;;5138188;27;20106;-76
2023/08/14 06:14:40;;;;;;;1999.90;999.90;;;22.00;99.90;;;;;;5137663;27;20119;-76
2023/08/14 06:17:06;;;;;;;1999.90;999.90;;;21.90;99.90;;;;;;5138029;27;20102;-76
2023/08/14 06:19:31;;;;;;;1999.90;999.90;;;21.80;99.90;;;;;;5137894;27;20040;-76
2023/08/14 06:21:57;;;;;;;1999.90;999.90;;;21.90;99.90;;;;;;5138025;27;20032;-76
2023/08/14 06:24:23;;;;;;;1999.90;999.90;;;22.00;99.90;;;;;;5137643;27;20063;-76
2023/08/14 06:26:48;;;;;;;1999.90;999.90;;;22.10;99.90;;;;;;5137937;27;20065;-77
2023/08/14 06:29:14;;;;;;;1999.90;999.90;;;22.20;99.90;;;;;;5136143;27;20055;-76
2023/08/14 06:31:39;;;;;;;1999.90;999.90;;;22.30;99.90;;;;;;5136977;27;20492;-77
2023/08/14 06:34:05;;;;;;;1999.90;999.90;;;22.40;99.90;;;;;;5136039;27;20031;-77
2023/08/14 06:36:31;;;;;;;1999.90;999.90;;;22.30;99.90;;;;;;5137809;27;20780;-77
2023/08/14 06:38:56;;;;;;;1999.90;999.90;;;22.50;99.90;;;;;;5137428;27;20483;-77
2023/08/14 06:41:22;;;;;;;1999.90;999.90;;;22.40;99.90;;;;;;5136153;27;20530;-77
2023/08/14 06:43:48;;;;;;;1999.90;999.90;;;22.30;99.90;;;;;;5137522;27;20396;-76
2023/08/14 06:46:13;;;;;;;1999.90;999.90;;;22.30;99.90;;;;;;5137459;27;20040;-76
2023/08/14 06:48:39;;;;;;;1999.90;999.90;;;22.40;99.90;;;;;;5137487;27;20043;-76
2023/08/14 06:51:04;;;;;;;1999.90;999.90;;;22.20;99.90;;;;;;5135802;27;20131;-77
2023/08/14 06:53:30;;;;;;;1999.90;999.90;;;22.10;99.90;;;;;;5136149;27;20031;-77
2023/08/14 06:55:55;;;;;;;1999.90;999.90;;;22.10;99.90;;;;;;5137462;27;20437;-77
2023/08/14 06:58:21;;;;;;;1999.90;999.90;;;22.20;99.90;;;;;;5135989;27;20032;-77
2023/08/14 07:00:48;;;;;;;1999.90;999.90;;;22.10;99.90;;;;;;5137175;27;20446;-75
2023/08/14 07:03:13;;;;;;;1999.90;999.90;;;22.10;99.90;;;;;;5137384;27;20028;-76
2023/08/14 07:05:39;;;;;;;1999.90;999.90;;;22.00;99.90;;;;;;5136727;27;20027;-77
2023/08/14 07:08:05;;;;;;;1999.90;999.90;;;22.00;99.90;;;;;;5136954;27;20396;-77
2023/08/14 07:10:30;;;;;;;1999.90;999.90;;;22.00;99.90;;;;;;5137407;27;20389;-77
2023/08/14 07:12:56;;;;;;;1999.90;999.90;;;21.90;99.90;;;;;;5137059;27;20047;-77
2023/08/14 07:15:21;;;;;;;1999.90;999.90;;;22.10;99.90;;;;;;5137221;27;20606;-77
2023/08/14 07:17:47;;;;;;;1999.90;999.90;;;22.30;99.90;;;;;;5137202;27;20076;-77
2023/08/14 07:20:12;;;;;;;1999.90;999.90;;;22.50;99.90;;;;;;5136944;27;20062;-77
2023/08/14 07:22:38;;;;;;;1999.90;999.90;;;22.70;99.90;;;;;;5137121;27;20038;-77
2023/08/14 07:25:05;;;;;;;1999.90;999.90;;;22.90;99.90;;;;;;5136799;27;20480;-77
2023/08/14 07:27:31;;;;;;;1999.90;999.90;;;23.10;99.90;;;;;;5135389;27;20070;-76
2023/08/14 07:29:56;;;;;;;1999.90;999.90;;;23.10;99.90;;;;;;5135106;27;20165;-77
2023/08/14 07:32:22;;;;;;;1999.90;999.90;;;23.30;99.90;;;;;;5134974;27;20043;-76
2023/08/14 07:34:48;;;;;;;1999.90;999.90;;;23.50;99.90;;;;;;5135142;27;20042;-77
2023/08/14 07:37:14;;;;;;;1999.90;999.90;;;23.60;99.90;;;;;;5137114;27;20031;-77
2023/08/14 07:39:39;;;;;;;1999.90;999.90;;;23.70;99.90;;;;;;5135547;27;20428;-77
2023/08/14 07:42:05;;;;;;;1999.90;999.90;;;24.00;99.90;;;;;;5136759;27;20081;-77
2023/08/14 07:44:30;;;;;;;1999.90;999.90;;;24.10;99.90;;;;;;5135944;27;20036;-77
2023/08/14 07:46:56;;;;;;;1999.90;999.90;;;24.30;99.90;;;;;;5136849;27;20027;-75
2023/08/14 07:49:22;;;;;;;1999.90;999.90;;;24.40;99.90;;;;;;5134854;27;20036;-75
2023/08/14 07:51:50;;;;;;;1999.90;999.90;;;24.40;99.90;;;;;;5136637;27;20114;-77
2023/08/14 07:54:16;;;;;;;1999.90;999.90;;;24.50;99.90;;;;;;5134680;27;20118;-75
2023/08/14 07:56:42;;;;;;;1999.90;999.90;;;24.80;99.90;;;;;;5136642;27;20028;-76
2023/08/14 07:59:07;;;;;;;1999.90;999.90;;;24.90;99.90;;;;;;5136088;27;20036;-76
2023/08/14 08:01:33;;;;;;;1999.90;999.90;;;25.10;99.90;;;;;;5134795;27;20397;-75
2023/08/14 08:03:59;;;;;;;1999.90;999.90;;;25.30;99.90;;;;;;5136654;27;20067;-76
2023/08/14 08:06:25;;;;;;;1999.90;999.90;;;25.50;99.90;;;;;;5134918;27;20049;-76
2023/08/14 08:08:51;;;;;;;1999.90;999.90;;;25.70;99.90;;;;;;5133732;27;20055;-77
2023/08/14 08:11:16;;;;;;;1999.90;999.90;;;25.70;99.90;;;;;;5136233;27;20024;-77
2023/08/14 08:13:42;;;;;;;1999.90;999.90;;;25.60;99.90;;;;;;5136479;27;20036;-77
2023/08/14 08:16:08;;;;;;;1999.90;999.90;;;25.70;99.90;;;;;;5134601;27;20024;-77
2023/08/14 08:18:34;;;;;;;1999.90;999.90;;;25.90;99.90;;;;;;5135981;27;20528;-77
2023/08/14 08:21:00;;;;;;;1999.90;999.90;;;26.10;99.90;;;;;;5135846;27;20111;-77
2023/08/14 08:23:25;;;;;;;1999.90;999.90;;;26.30;99.90;;;;;;5135698;27;20031;-76
2023/08/14 08:25:51;;;;;;;1999.90;999.90;;;26.50;99.90;;;;;;5134335;27;20119;-77
2023/08/14 08:28:16;;;;;;;1999.90;999.90;;;26.20;99.90;;;;;;5135697;27;20118;-76
2023/08/14 08:30:42;;;;;;;1999.90;999.90;;;26.40;99.90;;;;;;5135977;27;20028;-76
2023/08/14 08:33:08;;;;;;;1999.90;999.90;;;26.50;99.90;;;;;;5134350;27;20028;-76
2023/08/14 08:35:33;;;;;;;1999.90;999.90;;;26.70;99.90;;;;;;5134215;27;20034;-76
2023/08/14 08:37:59;;;;;;;1999.90;999.90;;;26.80;99.90;;;;;;5135464;27;20043;-76
2023/08/14 08:40:25;;;;;;;1999.90;999.90;;;26.90;99.90;;;;;;5135552;27;20164;-76
2023/08/14 08:42:51;;;;;;;1999.90;999.90;;;27.00;99.90;;;;;;5135574;27;20127;-77
2023/08/14 08:45:18;;;;;;;1999.90;999.90;;;27.00;99.90;;;;;;5135725;27;20024;-76
2023/08/14 08:47:49;;;;;;;1999.90;999.90;;;27.00;99.90;;;;;;5135711;27;20035;-76
2023/08/14 08:50:14;;;;;;;1999.90;999.90;;;27.10;99.90;;;;;;5134270;27;20027;-76
2023/08/14 08:52:40;;;;;;;1999.90;999.90;;;27.30;99.90;;;;;;5135727;27;20464;-76
2023/08/14 08:55:07;;;;;;;1999.90;999.90;;;27.30;99.90;;;;;;5138707;27;20028;-76
2023/08/14 08:57:35;;;;;;;1999.90;999.90;;;27.30;99.90;;;;;;5139287;27;20085;-76
2023/08/14 09:00:01;;;;;;;1999.90;999.90;;;27.50;99.90;;;;;;5139118;27;20043;-76
2023/08/14 09:02:27;;;;;;;1999.90;999.90;;;27.70;99.90;;;;;;5137620;27;20485;-77
2023/08/14 09:04:53;;;;;;;1999.90;999.90;;;27.90;99.90;;;;;;5137528;27;20042;-76
2023/08/14 09:07:18;;;;;;;1999.90;999.90;;;27.80;99.90;;;;;;5139265;27;20503;-76
2023/08/14 09:09:44;;;;;;;1999.90;999.90;;;28.00;99.90;;;;;;5087677;22;20046;-78
2023/08/14 09:12:09;;;;;;;1999.90;999.90;;;28.10;99.90;;;;;;5035038;28;20103;-77
2023/08/14 09:14:41;;;;;;;1999.90;999.90;;;28.10;99.90;;;;;;5032972;28;20118;-77
2023/08/14 09:17:06;;;;;;;1999.90;999.90;;;28.00;99.90;;;;;;5034473;28;20030;-77
2023/08/14 09:19:32;;;;;;;1999.90;999.90;;;27.90;99.90;;;;;;5032776;28;20037;-77
2023/08/14 09:21:57;;;;;;;1999.90;999.90;;;27.90;99.90;;;;;;5032723;27;20534;-78
2023/08/14 09:24:23;;;;;;;1999.90;999.90;;;28.10;99.90;;;;;;5033963;28;20364;-78
2023/08/14 09:26:49;;;;;;;1999.90;999.90;;;28.40;99.90;;;;;;5034372;27;20026;-77
2023/08/14 09:29:15;;;;;;;1999.90;999.90;;;28.80;99.90;;;;;;5034592;28;20786;-77
2023/08/14 09:31:44;;;;;;;1999.90;999.90;;;29.00;99.90;;;;;;5034902;28;20502;-77
2023/08/14 09:34:18;;;;;;;1999.90;999.90;;;29.30;99.90;;;;;;5034021;27;20133;-77
2023/08/14 09:36:44;;;;;;;1999.90;999.90;;;29.40;99.90;;;;;;5034240;28;20049;-77
2023/08/14 09:39:10;;;;;;;1999.90;999.90;;;29.60;99.90;;;;;;5033579;28;20030;-77
2023/08/14 09:41:37;;;;;;;1999.90;999.90;;;29.50;99.90;;;;;;5032430;28;20041;-77
2023/08/14 09:44:03;;;;;;;1999.90;999.90;;;29.10;99.90;;;;;;5033600;28;20042;-77
2023/08/14 09:46:29;;;;;;;1999.90;999.90;;;29.30;99.90;;;;;;5033571;28;20499;-77
2023/08/14 09:48:55;;;;;;;1999.90;999.90;;;29.50;99.90;;;;;;5032063;28;20040;-77
2023/08/14 09:51:21;;;;;;;1999.90;999.90;;;29.50;99.90;;;;;;5033741;28;20097;-78
2023/08/14 09:53:48;;;;;;;1999.90;999.90;;;29.70;99.90;;;;;;5033652;28;20095;-77
2023/08/14 09:56:15;;;;;;;1999.90;999.90;;;29.90;99.90;;;;;;5033274;28;20030;-78
2023/08/14 09:58:41;;;;;;;1999.90;999.90;;;29.80;99.90;;;;;;5019536;28;20035;-78
2023/08/14 10:01:07;;;;;;;1999.90;999.90;;;30.00;99.90;;;;;;5014446;28;20038;-79
2023/08/14 10:03:34;;;;;;;1999.90;999.90;;;30.10;99.90;;;;;;5015108;28;20041;-79
2023/08/14 10:06:02;;;;;;;1999.90;999.90;;;30.30;99.90;;;;;;5028511;28;20035;-79
2023/08/14 10:08:31;;;;;;;1999.90;999.90;;;30.30;99.90;;;;;;5029599;28;20054;-81
2023/08/14 10:10:57;;;;;;;1999.90;999.90;;;30.30;99.90;;;;;;5014870;28;20038;-81
2023/08/14 10:13:25;;;;;;;1999.90;999.90;;;30.30;99.90;;;;;;5014646;28;20045;-79
2023/08/14 10:15:55;;;;;;;1999.90;999.90;;;30.50;99.20;;;;;;5014412;28;20117;-80
2023/08/14 10:18:22;;;;;;;1999.90;999.90;;;30.60;99.30;;;;;;5013338;28;20035;-78
2023/08/14 10:20:50;;;;;;;1999.90;999.90;;;30.60;99.40;;;;;;5013513;28;20030;-78
2023/08/14 10:23:16;;;;;;;1999.90;999.90;;;30.90;98.20;;;;;;5013918;28;20318;-77
2023/08/14 10:25:47;;;;;;;1999.90;999.90;;;30.90;97.80;;;;;;5013013;28;20073;-77
2023/08/14 10:28:12;;;;;;;1999.90;999.90;;;30.90;97.10;;;;;;5013804;28;20035;-77
2023/08/14 10:30:39;;;;;;;1999.90;999.90;;;31.10;97.90;;;;;;5014364;28;20026;-78
2023/08/14 10:33:06;;;;;;;1999.90;999.90;;;31.50;99.40;;;;;;5028799;28;20051;-77
2023/08/14 10:35:44;;;;;;;1999.90;999.90;;;31.40;98.90;;;;;;5011927;28;20022;-78
2023/08/14 10:38:10;;;;;;;1999.90;999.90;;;31.60;96.90;;;;;;5030840;28;20039;-77
2023/08/14 10:40:35;;;;;;;1999.90;999.90;;;32.10;98.40;;;;;;5014174;28;20031;-77
2023/08/14 10:43:01;;;;;;;1999.90;999.90;;;32.50;97.80;;;;;;5011946;28;20309;-77
2023/08/14 10:45:28;;;;;;;1999.90;999.90;;;32.00;95.00;;;;;;5014566;28;20061;-77
2023/08/14 10:48:00;;;;;;;1999.90;999.90;;;31.60;95.90;;;;;;5015152;28;20065;-77
2023/08/14 10:50:28;;;;;;;1999.90;999.90;;;31.80;95.20;;;;;;5014860;28;20106;-77
2023/08/14 10:52:56;;;;;;;1999.90;999.90;;;32.00;96.10;;;;;;5030185;28;20038;-77
2023/08/14 10:55:34;;;;;;;1999.90;999.90;;;32.10;96.40;;;;;;5016549;28;20039;-77
2023/08/14 10:58:00;;;;;;;1999.90;999.90;;;32.30;95.70;;;;;;5017005;28;20518;-78
2023/08/14 11:00:26;;;;;;;1999.90;999.90;;;32.50;94.50;;;;;;5018415;28;20038;-78
2023/08/14 11:03:04;;;;;;;1999.90;999.90;;;32.50;94.30;;;;;;5016427;28;20042;-77
2023/08/14 11:05:38;;;;;;;1999.90;999.90;;;32.30;93.40;;;;;;5015115;28;20035;-78
2023/08/14 11:08:06;;;;;;;1999.90;999.90;;;32.00;92.90;;;;;;5017660;28;20030;-78
2023/08/14 11:10:34;;;;;;;1999.90;999.90;;;32.10;94.30;;;;;;5017853;28;20034;-78
2023/08/14 11:13:01;;;;;;;1999.90;999.90;;;32.40;92.70;;;;;;5017779;28;20035;-78
2023/08/14 11:15:30;;;;;;;1999.90;999.90;;;32.60;92.30;;;;;;5017796;28;20099;-78
2023/08/14 11:17:56;;;;;;;1999.90;999.90;;;32.80;92.50;;;;;;5017259;28;20042;-78
2023/08/14 11:20:24;;;;;;;1999.90;999.90;;;32.60;91.60;;;;;;5018723;28;20940;-78
2023/08/14 11:22:50;;;;;;;1999.90;999.90;;;32.50;92.20;;;;;;5016531;28;20034;-78
2023/08/14 11:25:16;;;;;;;1999.90;999.90;;;32.10;91.80;;;;;;5015731;28;20042;-77
2023/08/14 11:27:47;;;;;;;1999.90;999.90;;;31.60;95.50;;;;;;5017360;28;20062;-78
2023/08/14 11:30:13;;;;;;;1999.90;999.90;;;31.70;94.20;;;;;;5018416;28;20030;-78
2023/08/14 11:32:38;;;;;;;1999.90;999.90;;;31.90;93.60;;;;;;5017577;28;20034;-78
2023/08/14 11:35:05;;;;;;;1999.90;999.90;;;31.90;93.80;;;;;;5048147;27;20401;-79
2023/08/14 11:37:31;;;;;;;1999.90;999.90;;;31.80;93.50;;;;;;5140578;27;20031;-79
2023/08/14 11:40:04;;;;;;;1999.90;999.90;;;31.70;92.80;;;;;;5139859;27;20027;-78
2023/08/14 11:42:31;;;;;;;1999.90;999.90;;;31.60;94.50;;;;;;5141420;27;20028;-78
2023/08/14 11:44:57;;;;;;;1999.90;999.90;;;31.60;93.90;;;;;;5143019;27;20528;-78
2023/08/14 11:47:23;;;;;;;1999.90;999.90;;;31.80;94.80;;;;;;5140981;27;20028;-78
2023/08/14 11:49:49;;;;;;;1999.90;999.90;;;32.10;94.30;;;;;;5143365;27;20133;-79
2023/08/14 11:52:15;;;;;;;1999.90;999.90;;;31.90;93.60;;;;;;5143509;27;20824;-78
2023/08/14 11:54:44;;;;;;;1999.90;999.90;;;32.10;94.60;;;;;;5142708;27;20040;-78
2023/08/14 11:57:13;;;;;;;1999.90;999.90;;;32.60;93.70;;;;;;5144436;27;20444;-79